createdAt,value
2018-12-25T00:02:06.362Z,11.20
2018-12-25T00:04:35.514Z,12.10
2018-12-25T00:07:04.629Z,8.60
2018-12-25T00:09:33.788Z,9.20
2018-12-25T00:12:02.918Z,8.00
2018-12-25T00:14:32.062Z,7.40
2018-12-25T00:17:01.190Z,7.13
2018-12-25T00:19:30.345Z,6.80
2018-12-25T00:21:59.477Z,8.93
2018-12-25T00:24:28.614Z,6.93
2018-12-25T00:26:57.747Z,6.57
2018-12-25T00:29:26.934Z,6.57
2018-12-25T00:31:56.069Z,5.83
2018-12-25T00:34:25.202Z,6.87
2018-12-25T00:36:54.330Z,4.90
2018-12-25T00:39:23.472Z,7.40
2018-12-25T00:41:52.612Z,5.30
2018-12-25T00:44:21.868Z,6.43
2018-12-25T00:46:50.948Z,6.87
2018-12-25T00:49:20.101Z,7.73
2018-12-25T00:51:49.310Z,7.90
2018-12-25T00:54:18.447Z,9.03
2018-12-25T00:56:47.583Z,9.17
2018-12-25T00:59:16.729Z,8.60
2018-12-25T01:01:45.869Z,9.20
2018-12-25T01:04:15.040Z,11.87
2018-12-25T01:06:44.166Z,11.13
2018-12-25T01:09:13.278Z,8.33
2018-12-25T01:11:42.413Z,9.13
2018-12-25T01:14:11.574Z,11.70
2018-12-25T01:16:40.699Z,11.00
2018-12-25T01:19:09.851Z,14.97
2018-12-25T01:21:38.999Z,13.90
2018-12-25T01:24:08.114Z,11.53
2018-12-25T01:26:37.232Z,7.20
2018-12-25T01:29:06.375Z,8.53
2018-12-25T01:31:35.542Z,10.97
2018-12-25T01:34:04.659Z,7.90
2018-12-25T01:36:33.825Z,10.63
2018-12-25T01:39:04.513Z,6.80
2018-12-25T01:41:33.760Z,7.30
2018-12-25T01:44:02.864Z,6.67
2018-12-25T01:46:31.992Z,7.70
2018-12-25T01:49:01.126Z,6.67
2018-12-25T01:51:30.260Z,9.10
2018-12-25T01:53:59.390Z,9.50
2018-12-25T01:56:28.535Z,9.43
2018-12-25T01:58:57.691Z,11.10
2018-12-25T02:01:26.833Z,12.37
2018-12-25T02:03:55.984Z,13.63
2018-12-25T02:06:25.204Z,10.70
2018-12-25T02:08:54.293Z,8.23
2018-12-25T02:11:23.465Z,10.80
2018-12-25T02:13:52.642Z,8.93
2018-12-25T02:16:21.790Z,8.97
2018-12-25T02:18:50.900Z,9.43
2018-12-25T02:21:20.073Z,11.83
2018-12-25T02:23:49.205Z,6.57
2018-12-25T02:26:18.353Z,8.77
2018-12-25T02:28:47.511Z,10.00
2018-12-25T02:31:16.625Z,8.50
2018-12-25T02:33:45.785Z,10.40
2018-12-25T02:36:14.903Z,8.13
2018-12-25T02:38:44.060Z,9.90
2018-12-25T02:41:13.173Z,8.67
2018-12-25T02:43:42.304Z,9.73
2018-12-25T02:46:11.464Z,7.93
2018-12-25T02:48:40.595Z,8.50
2018-12-25T02:51:09.737Z,8.53
2018-12-25T02:53:38.867Z,8.67
2018-12-25T02:56:08.036Z,11.07
2018-12-25T02:58:37.172Z,12.30
2018-12-25T03:01:06.353Z,11.70
2018-12-25T03:03:35.469Z,12.73
2018-12-25T03:06:04.620Z,10.07
2018-12-25T03:08:33.719Z,6.80
2018-12-25T03:11:02.926Z,7.43
2018-12-25T03:13:31.995Z,8.83
2018-12-25T03:16:01.136Z,8.20
2018-12-25T03:18:30.262Z,8.67
2018-12-25T03:20:59.377Z,7.87
2018-12-25T03:23:28.514Z,7.57
2018-12-25T03:25:57.633Z,8.23
2018-12-25T03:28:26.765Z,8.93
2018-12-25T03:30:55.894Z,8.03
2018-12-25T03:33:25.027Z,8.70
2018-12-25T03:35:54.153Z,8.50
2018-12-25T03:38:23.295Z,6.93
2018-12-25T03:40:52.420Z,8.37
2018-12-25T03:43:21.566Z,6.20
2018-12-25T03:45:50.687Z,8.00
2018-12-25T03:48:19.827Z,4.87
2018-12-25T03:50:48.963Z,6.43
2018-12-25T03:53:18.103Z,6.10
2018-12-25T03:55:47.236Z,6.33
2018-12-25T03:58:16.381Z,5.47
2018-12-25T04:00:45.510Z,5.40
2018-12-25T04:03:14.663Z,7.30
2018-12-25T04:05:43.839Z,6.43
2018-12-25T04:08:12.983Z,6.60
2018-12-25T04:10:42.105Z,8.00
2018-12-25T04:13:11.252Z,6.87
2018-12-25T04:15:40.373Z,7.00
2018-12-25T04:18:09.510Z,8.83
2018-12-25T04:20:38.629Z,7.27
2018-12-25T04:23:07.810Z,8.10
2018-12-25T04:25:36.930Z,6.23
2018-12-25T04:28:06.064Z,7.10
2018-12-25T04:30:35.179Z,7.60
2018-12-25T04:33:04.318Z,8.40
2018-12-25T04:35:33.523Z,7.63
2018-12-25T04:38:02.662Z,5.37
2018-12-25T04:40:31.778Z,7.57
2018-12-25T04:43:00.920Z,6.80
2018-12-25T04:45:30.040Z,8.63
2018-12-25T04:47:59.174Z,7.50
2018-12-25T04:50:29.451Z,9.10
2018-12-25T04:52:59.032Z,8.03
2018-12-25T04:55:28.147Z,7.53
2018-12-25T04:57:57.273Z,7.90
2018-12-25T05:00:26.398Z,9.53
2018-12-25T05:02:55.521Z,7.10
2018-12-25T05:05:24.666Z,7.03
2018-12-25T05:07:53.799Z,6.03
2018-12-25T05:10:22.931Z,4.70
2018-12-25T05:12:52.053Z,7.20
2018-12-25T05:15:21.186Z,7.47
2018-12-25T05:17:50.318Z,7.70
2018-12-25T05:20:19.452Z,8.63
2018-12-25T05:22:48.585Z,7.17
2018-12-25T05:25:18.929Z,6.53
2018-12-25T05:27:48.031Z,7.27
2018-12-25T05:30:17.168Z,8.20
2018-12-25T05:32:46.289Z,9.87
2018-12-25T05:35:15.420Z,6.37
2018-12-25T05:37:44.541Z,6.07
2018-12-25T05:40:13.676Z,7.43
2018-12-25T05:42:42.804Z,7.37
2018-12-25T05:45:11.939Z,7.47
2018-12-25T05:47:41.066Z,8.57
2018-12-25T05:50:10.201Z,6.23
2018-12-25T05:52:39.327Z,5.37
2018-12-25T05:55:08.458Z,6.50
2018-12-25T05:57:37.578Z,4.67
2018-12-25T06:00:08.049Z,6.20
2018-12-25T06:02:37.185Z,5.43
2018-12-25T06:05:06.398Z,6.77
2018-12-25T06:07:35.531Z,5.63
2018-12-25T06:10:05.057Z,9.57
2018-12-25T06:12:34.185Z,7.70
2018-12-25T06:15:03.326Z,5.40
2018-12-25T06:17:32.452Z,7.30
2018-12-25T06:20:01.592Z,7.87
2018-12-25T06:22:30.715Z,8.07
2018-12-25T06:24:59.882Z,11.83
2018-12-25T06:27:29.092Z,11.00
2018-12-25T06:29:58.227Z,12.27
2018-12-25T06:32:27.335Z,8.87
2018-12-25T06:34:56.482Z,8.63
2018-12-25T06:37:25.640Z,12.27
2018-12-25T06:39:54.774Z,10.47
2018-12-25T06:42:23.868Z,7.60
2018-12-25T06:44:53.033Z,10.03
2018-12-25T06:47:22.127Z,9.47
2018-12-25T06:49:51.274Z,8.67
2018-12-25T06:52:20.401Z,6.17
2018-12-25T06:54:49.559Z,11.27
2018-12-25T06:57:18.697Z,10.17
2018-12-25T06:59:47.807Z,9.53
2018-12-25T07:02:16.946Z,7.63
2018-12-25T07:04:46.176Z,7.80
2018-12-25T07:07:15.281Z,6.13
2018-12-25T07:09:44.416Z,9.03
2018-12-25T07:12:13.552Z,5.87
2018-12-25T07:14:42.676Z,8.60
2018-12-25T07:17:11.815Z,8.43
2018-12-25T07:19:40.936Z,7.87
2018-12-25T07:22:10.083Z,4.57
2018-12-25T07:24:39.212Z,7.20
2018-12-25T07:27:08.346Z,7.43
2018-12-25T07:29:37.470Z,7.57
2018-12-25T07:32:06.615Z,6.30
2018-12-25T07:34:35.758Z,8.50
2018-12-25T07:37:04.894Z,7.93
2018-12-25T07:39:34.016Z,8.70
2018-12-25T07:42:03.153Z,8.57
2018-12-25T07:44:32.277Z,7.53
2018-12-25T07:47:01.417Z,8.40
2018-12-25T07:49:30.566Z,7.53
2018-12-25T07:51:59.725Z,8.17
2018-12-25T07:54:28.848Z,7.63
2018-12-25T07:56:57.981Z,7.70
2018-12-25T07:59:27.119Z,15.53
2018-12-25T08:01:56.272Z,18.27
2018-12-25T08:04:25.404Z,19.90
2018-12-25T08:06:54.552Z,16.23
2018-12-25T08:09:23.669Z,16.33
2018-12-25T08:11:52.819Z,15.20
2018-12-25T08:14:21.934Z,10.93
2018-12-25T08:16:51.078Z,14.07
2018-12-25T08:19:20.204Z,13.20
2018-12-25T08:21:49.344Z,14.00
2018-12-25T08:24:18.464Z,13.03
2018-12-25T08:26:47.614Z,14.83
2018-12-25T08:29:16.746Z,12.23
2018-12-25T08:31:45.865Z,15.10
2018-12-25T08:34:15.027Z,13.87
2018-12-25T08:36:44.148Z,14.03
2018-12-25T08:39:13.277Z,13.23
2018-12-25T08:41:42.402Z,12.50
2018-12-25T08:44:11.584Z,10.20
2018-12-25T08:46:40.674Z,8.70
2018-12-25T08:49:09.837Z,10.20
2018-12-25T08:51:39.244Z,12.10
2018-12-25T08:54:08.398Z,12.63
2018-12-25T08:56:37.543Z,9.23
2018-12-25T08:59:06.699Z,12.27
2018-12-25T09:01:35.815Z,12.20
2018-12-25T09:04:04.934Z,9.73
2018-12-25T09:06:34.095Z,14.37
2018-12-25T09:09:04.936Z,17.77
2018-12-25T09:11:34.064Z,14.97
2018-12-25T09:14:03.199Z,11.63
2018-12-25T09:16:32.324Z,12.67
2018-12-25T09:19:01.469Z,13.13
2018-12-25T09:21:30.592Z,12.10
2018-12-25T09:23:59.721Z,11.57
2018-12-25T09:26:28.865Z,16.73
2018-12-25T09:28:57.977Z,9.27
2018-12-25T09:31:27.104Z,9.53
2018-12-25T09:33:56.594Z,10.00
2018-12-25T09:36:25.676Z,9.43
2018-12-25T09:38:54.863Z,13.70
2018-12-25T09:41:23.990Z,14.53
2018-12-25T09:43:53.130Z,14.03
2018-12-25T09:46:22.288Z,12.00
2018-12-25T09:48:51.429Z,12.53
2018-12-25T09:51:20.567Z,12.27
2018-12-25T09:53:49.673Z,9.80
2018-12-25T09:56:18.797Z,7.87
2018-12-25T09:58:47.952Z,7.20
2018-12-25T10:01:17.097Z,10.73
2018-12-25T10:03:46.207Z,8.60
2018-12-25T10:06:15.364Z,10.17
2018-12-25T10:08:44.482Z,8.97
2018-12-25T10:11:13.609Z,7.77
2018-12-25T10:13:42.848Z,8.93
2018-12-25T10:16:12.003Z,12.90
2018-12-25T10:18:41.102Z,7.43
2018-12-25T10:21:10.273Z,10.17
2018-12-25T10:23:39.406Z,10.13
2018-12-25T10:26:08.529Z,7.97
2018-12-25T10:28:37.658Z,7.23
2018-12-25T10:31:06.801Z,8.87
2018-12-25T10:33:35.953Z,10.10
2018-12-25T10:36:05.087Z,11.13
2018-12-25T10:38:34.189Z,9.17
2018-12-25T10:41:03.340Z,8.53
2018-12-25T10:43:32.469Z,8.53
2018-12-25T10:46:01.613Z,8.67
2018-12-25T10:48:30.786Z,10.57
2018-12-25T10:50:59.936Z,12.57
2018-12-25T10:53:29.074Z,14.80
2018-12-25T10:55:58.217Z,13.87
2018-12-25T10:58:27.344Z,14.20
2018-12-25T11:00:56.698Z,9.17
2018-12-25T11:03:25.819Z,7.93
2018-12-25T11:05:54.952Z,7.53
2018-12-25T11:08:24.119Z,10.87
2018-12-25T11:10:53.258Z,8.73
2018-12-25T11:13:22.421Z,10.13
2018-12-25T11:15:51.557Z,10.63
2018-12-25T11:18:20.691Z,10.57
2018-12-25T11:20:49.801Z,9.77
2018-12-25T11:23:18.968Z,8.00
2018-12-25T11:25:48.085Z,10.40
2018-12-25T11:28:17.212Z,14.17
2018-12-25T11:30:46.417Z,9.33
2018-12-25T11:33:15.583Z,12.13
2018-12-25T11:35:44.762Z,12.53
2018-12-25T11:38:13.849Z,8.80
2018-12-25T11:40:43.032Z,10.47
2018-12-25T11:43:12.167Z,14.07
2018-12-25T11:45:41.362Z,17.03
2018-12-25T11:48:10.504Z,15.67
2018-12-25T11:50:39.666Z,14.23
2018-12-25T11:53:08.810Z,17.83
2018-12-25T11:55:37.950Z,15.53
2018-12-25T11:58:07.218Z,15.03
2018-12-25T12:00:36.348Z,12.47
2018-12-25T12:03:05.530Z,14.37
2018-12-25T12:05:34.640Z,13.77
2018-12-25T12:08:03.769Z,14.17
2018-12-25T12:10:32.880Z,13.30
2018-12-25T12:13:02.023Z,12.87
2018-12-25T12:15:31.160Z,13.27
2018-12-25T12:18:00.319Z,12.80
2018-12-25T12:20:29.437Z,12.20
2018-12-25T12:22:58.550Z,9.90
2018-12-25T12:25:27.716Z,11.20
2018-12-25T12:27:56.856Z,12.70
2018-12-25T12:30:25.979Z,11.57
2018-12-25T12:32:55.124Z,11.03
2018-12-25T12:35:24.222Z,8.90
2018-12-25T12:37:53.396Z,11.27
2018-12-25T12:40:22.523Z,12.40
2018-12-25T12:42:51.645Z,9.10
2018-12-25T12:45:20.770Z,8.43
2018-12-25T12:47:49.945Z,6.67
2018-12-25T12:50:19.057Z,9.83
2018-12-25T12:52:48.205Z,9.47
2018-12-25T12:55:17.328Z,8.80
2018-12-25T12:57:46.464Z,9.33
2018-12-25T13:00:15.646Z,9.03
2018-12-25T13:02:44.820Z,10.17
2018-12-25T13:05:13.946Z,12.20
2018-12-25T13:07:43.086Z,12.43
2018-12-25T13:10:12.217Z,10.73
2018-12-25T13:12:41.323Z,8.63
2018-12-25T13:15:10.456Z,9.47
2018-12-25T13:17:39.617Z,10.73
2018-12-25T13:20:08.762Z,10.47
2018-12-25T13:22:37.967Z,10.77
2018-12-25T13:25:07.079Z,9.57
2018-12-25T13:27:36.237Z,11.20
2018-12-25T13:30:08.781Z,10.60
2018-12-25T13:32:37.909Z,11.17
2018-12-25T13:35:07.029Z,8.40
2018-12-25T13:37:36.190Z,10.57
2018-12-25T13:40:06.347Z,11.20
2018-12-25T13:42:35.473Z,11.23
2018-12-25T13:45:04.810Z,9.67
2018-12-25T13:47:33.965Z,10.83
2018-12-25T13:50:03.106Z,10.30
2018-12-25T13:52:32.227Z,10.17
2018-12-25T13:55:01.335Z,7.03
2018-12-25T13:57:30.460Z,7.17
2018-12-25T13:59:59.643Z,8.27
2018-12-25T14:02:28.756Z,8.33
2018-12-25T14:04:58.744Z,9.40
2018-12-25T14:07:27.868Z,9.90
2018-12-25T14:09:57.102Z,11.93
2018-12-25T14:12:26.280Z,11.43
2018-12-25T14:14:55.409Z,10.77
2018-12-25T14:17:24.501Z,8.87
2018-12-25T14:19:53.633Z,8.47
2018-12-25T14:22:22.772Z,6.43
2018-12-25T14:24:51.955Z,12.00
2018-12-25T14:27:21.119Z,9.67
2018-12-25T14:29:50.295Z,16.70
2018-12-25T14:32:19.424Z,11.40
2018-12-25T14:34:48.553Z,10.43
2018-12-25T14:37:17.692Z,10.77
2018-12-25T14:39:46.802Z,9.97
2018-12-25T14:42:15.929Z,9.17
2018-12-25T14:44:45.053Z,8.30
2018-12-25T14:47:26.413Z,6.73
2018-12-25T14:49:55.983Z,8.07
2018-12-25T14:52:25.108Z,6.77
2018-12-25T14:54:54.245Z,7.63
2018-12-25T14:57:23.397Z,13.47
2018-12-25T14:59:52.525Z,8.07
2018-12-25T15:02:21.695Z,11.17
2018-12-25T15:04:50.837Z,11.30
2018-12-25T15:07:19.972Z,12.53
2018-12-25T15:09:49.108Z,11.20
2018-12-25T15:12:18.234Z,11.27
2018-12-25T15:14:47.339Z,9.77
2018-12-25T15:17:16.463Z,8.27
2018-12-25T15:19:45.622Z,6.60
2018-12-25T15:22:14.846Z,7.50
2018-12-25T15:24:44.016Z,10.73
2018-12-25T15:27:13.157Z,11.77
2018-12-25T15:29:42.258Z,9.13
2018-12-25T15:32:11.437Z,10.80
2018-12-25T15:34:40.545Z,7.57
2018-12-25T15:37:09.663Z,6.60
2018-12-25T15:39:38.809Z,9.20
2018-12-25T15:42:07.930Z,8.90
2018-12-25T15:44:37.070Z,9.33
2018-12-25T15:47:06.232Z,10.60
2018-12-25T15:49:35.365Z,9.80
2018-12-25T15:52:04.500Z,7.13
2018-12-25T15:54:33.610Z,8.60
2018-12-25T15:57:03.095Z,8.70
2018-12-25T15:59:32.236Z,7.17
2018-12-25T16:02:13.553Z,8.23
2018-12-25T16:04:43.137Z,8.33
2018-12-25T16:07:12.290Z,8.70
2018-12-25T16:09:41.439Z,10.13
2018-12-25T16:12:10.555Z,9.63
2018-12-25T16:14:39.721Z,13.60
2018-12-25T16:17:08.822Z,9.53
2018-12-25T16:19:37.994Z,10.37
2018-12-25T16:22:07.117Z,8.70
2018-12-25T16:24:36.272Z,10.33
2018-12-25T16:27:06.749Z,12.23
2018-12-25T16:29:47.756Z,10.30
2018-12-25T16:32:17.281Z,13.63
2018-12-25T16:34:46.411Z,14.90
2018-12-25T16:37:15.568Z,12.93
2018-12-25T16:39:44.684Z,13.30
2018-12-25T16:42:13.817Z,14.73
2018-12-25T16:44:42.956Z,15.00
2018-12-25T16:47:12.090Z,10.63
2018-12-25T16:49:41.190Z,8.73
2018-12-25T16:52:10.358Z,13.70
2018-12-25T16:54:39.460Z,7.27
2018-12-25T16:57:08.594Z,9.63
2018-12-25T16:59:37.754Z,10.20
2018-12-25T17:02:06.946Z,7.63
2018-12-25T17:04:36.093Z,10.67
2018-12-25T17:07:05.227Z,10.93
2018-12-25T17:09:34.324Z,9.03
2018-12-25T17:12:03.514Z,11.90
2018-12-25T17:14:32.697Z,9.73
2018-12-25T17:17:01.847Z,9.97
2018-12-25T17:19:30.979Z,8.07
2018-12-25T17:22:00.128Z,6.20
2018-12-25T17:24:29.255Z,8.27
2018-12-25T17:26:58.402Z,6.77
2018-12-25T17:29:27.526Z,7.47
2018-12-25T17:31:56.673Z,7.37
2018-12-25T17:34:25.790Z,9.33
2018-12-25T17:36:54.951Z,13.93
2018-12-25T17:39:24.082Z,12.03
2018-12-25T17:41:53.224Z,13.53
2018-12-25T17:44:22.349Z,13.37
2018-12-25T17:46:51.486Z,14.00
2018-12-25T17:49:20.607Z,13.67
2018-12-25T17:51:49.735Z,9.43
2018-12-25T17:54:18.886Z,11.43
2018-12-25T17:56:48.034Z,10.90
2018-12-25T17:59:17.161Z,11.83
2018-12-25T18:01:46.289Z,9.47
2018-12-25T18:04:15.451Z,10.80
2018-12-25T18:06:44.609Z,17.03
2018-12-25T18:09:13.747Z,16.17
2018-12-25T18:11:42.878Z,11.73
2018-12-25T18:14:12.050Z,16.27
2018-12-25T18:16:41.179Z,18.43
2018-12-25T18:19:10.342Z,17.03
2018-12-25T18:21:39.479Z,15.73
2018-12-25T18:24:08.618Z,16.33
2018-12-25T18:26:37.762Z,16.67
2018-12-25T18:29:06.921Z,17.93
2018-12-25T18:31:36.049Z,17.57
2018-12-25T18:34:05.193Z,18.97
2018-12-25T18:36:34.326Z,16.23
2018-12-25T18:39:04.848Z,17.47
2018-12-25T18:41:33.992Z,17.23
2018-12-25T18:44:03.218Z,15.30
2018-12-25T18:46:32.334Z,22.13
2018-12-25T18:49:01.478Z,25.80
2018-12-25T18:51:30.609Z,26.17
2018-12-25T18:53:59.751Z,25.20
2018-12-25T18:56:28.885Z,19.90
2018-12-25T18:58:58.022Z,22.57
2018-12-25T19:01:27.145Z,24.63
2018-12-25T19:03:56.293Z,19.33
2018-12-25T19:06:25.433Z,21.00
2018-12-25T19:08:54.607Z,36.17
2018-12-25T19:11:23.726Z,39.53
2018-12-25T19:13:52.864Z,32.33
2018-12-25T19:16:21.993Z,23.57
2018-12-25T19:18:51.142Z,21.87
2018-12-25T19:21:20.281Z,30.37
2018-12-25T19:23:51.638Z,25.17
2018-12-25T19:26:20.764Z,25.67
2018-12-25T19:28:49.928Z,26.40
2018-12-25T19:31:19.060Z,20.47
2018-12-25T19:33:48.197Z,22.13
2018-12-25T19:36:17.336Z,18.27
2018-12-25T19:38:46.487Z,20.83
2018-12-25T19:41:15.613Z,18.27
2018-12-25T19:43:44.763Z,21.03
2018-12-25T19:46:13.905Z,17.87
2018-12-25T19:48:43.050Z,20.00
2018-12-25T19:51:12.300Z,19.00
2018-12-25T19:53:41.441Z,19.57
2018-12-25T19:56:10.595Z,21.67
2018-12-25T19:58:39.800Z,19.23
2018-12-25T20:01:08.933Z,17.93
2018-12-25T20:03:41.195Z,20.63
2018-12-25T20:06:20.991Z,19.53
2018-12-25T20:09:46.884Z,20.53
2018-12-25T20:12:41.577Z,18.00
2018-12-25T20:15:33.542Z,18.30
2018-12-25T20:18:34.700Z,19.23
2018-12-25T20:21:23.670Z,20.73
2018-12-25T20:24:00.456Z,21.37
2018-12-25T20:26:54.934Z,25.00
2018-12-25T20:29:55.592Z,24.50
2018-12-25T20:33:03.042Z,23.03
2018-12-25T20:36:10.259Z,24.33
2018-12-25T20:39:30.695Z,23.87
2018-12-25T20:42:33.080Z,22.80
2018-12-25T20:45:46.922Z,21.10
2018-12-25T20:48:42.051Z,18.93
2018-12-25T20:51:55.149Z,23.07
2018-12-25T20:55:01.441Z,18.13
2018-12-25T20:57:40.730Z,22.87
2018-12-25T21:00:40.572Z,21.57
2018-12-25T21:03:41.873Z,29.17
2018-12-25T21:06:38.363Z,29.37
2018-12-25T21:09:46.601Z,20.70
2018-12-25T21:12:50.749Z,20.37
2018-12-25T21:16:09.145Z,19.37
2018-12-25T21:19:14.921Z,24.37
2018-12-25T21:21:51.558Z,20.57
2018-12-25T21:25:16.120Z,25.20
2018-12-25T21:27:43.914Z,21.13
2018-12-25T21:30:13.121Z,23.40
2018-12-25T21:32:42.333Z,22.77
2018-12-25T21:35:19.890Z,27.70
2018-12-25T21:37:49.114Z,23.83
2018-12-25T21:40:18.237Z,23.03
2018-12-25T21:42:47.750Z,19.27
2018-12-25T21:45:16.900Z,20.87
2018-12-25T21:47:46.058Z,22.63
2018-12-25T21:50:15.167Z,23.57
2018-12-25T21:52:44.313Z,25.90
2018-12-25T21:55:18.527Z,22.70
2018-12-25T21:57:44.400Z,24.23
2018-12-25T22:00:14.230Z,23.20
2018-12-25T22:02:43.379Z,25.07
2018-12-25T22:05:12.568Z,19.60
2018-12-25T22:07:41.719Z,24.50
2018-12-25T22:10:10.860Z,23.27
2018-12-25T22:12:40.011Z,16.50
2018-12-25T22:15:09.235Z,19.43
2018-12-25T22:17:38.392Z,19.40
2018-12-25T22:20:18.267Z,18.10
2018-12-25T22:22:47.424Z,14.57
2018-12-25T22:25:16.558Z,19.93
2018-12-25T22:27:45.723Z,16.70
2018-12-25T22:30:14.853Z,19.93
2018-12-25T22:32:44.024Z,18.80
2018-12-25T22:35:13.156Z,22.20
2018-12-25T22:37:42.310Z,20.63
2018-12-25T22:40:11.439Z,20.77
2018-12-25T22:42:40.592Z,21.63
2018-12-25T22:45:09.726Z,20.40
2018-12-25T22:47:38.883Z,21.10
2018-12-25T22:50:08.023Z,17.33
2018-12-25T22:52:37.171Z,18.40
2018-12-25T22:55:08.874Z,15.97
2018-12-25T22:57:38.055Z,18.23
2018-12-25T23:00:10.552Z,18.63
2018-12-25T23:02:39.717Z,21.90
2018-12-25T23:05:08.847Z,17.00
2018-12-25T23:07:38.002Z,19.27
2018-12-25T23:10:07.714Z,20.17
2018-12-25T23:12:36.873Z,20.47
2018-12-25T23:15:06.607Z,18.60
2018-12-25T23:17:35.747Z,22.70
2018-12-25T23:20:05.723Z,20.30
2018-12-25T23:22:34.868Z,20.43
2018-12-25T23:25:04.292Z,21.93
2018-12-25T23:27:33.439Z,23.03
2018-12-25T23:30:02.579Z,17.77
2018-12-25T23:32:31.716Z,22.40
2018-12-25T23:35:00.877Z,21.53
2018-12-25T23:37:29.999Z,20.83
2018-12-25T23:39:59.146Z,16.27
2018-12-25T23:42:28.351Z,19.63
2018-12-25T23:44:57.503Z,16.60
2018-12-25T23:47:26.634Z,24.60
2018-12-25T23:49:55.779Z,24.93
2018-12-25T23:52:24.916Z,23.73
2018-12-25T23:54:54.076Z,21.00
2018-12-25T23:57:23.208Z,18.33
2018-12-25T23:59:52.366Z,20.43
